sensor_id;sensor_type;location;lat;lon;timestamp;temperature;humidity
59973;DHT22;55298;-36.624;-64.282;2022-09-02T00:02:01;14.00;40.50
59973;DHT22;55298;-36.624;-64.282;2022-09-02T00:04:34;15.50;41.70
59973;DHT22;55298;-36.624;-64.282;2022-09-02T00:07:03;13.90;40.80
59973;DHT22;55298;-36.624;-64.282;2022-09-02T00:09:32;13.90;41.00
59973;DHT22;55298;-36.624;-64.282;2022-09-02T00:12:03;13.80;40.50
59973;DHT22;55298;-36.624;-64.282;2022-09-02T00:14:37;13.70;40.50
59973;DHT22;55298;-36.624;-64.282;2022-09-02T00:19:45;13.70;41.00
59973;DHT22;55298;-36.624;-64.282;2022-09-02T00:30:23;13.40;40.90
59973;DHT22;55298;-36.624;-64.282;2022-09-02T00:32:55;13.30;40.90
59973;DHT22;55298;-36.624;-64.282;2022-09-02T00:59:52;12.90;42.40
59973;DHT22;55298;-36.624;-64.282;2022-09-02T01:05:30;12.70;42.10
59973;DHT22;55298;-36.624;-64.282;2022-09-02T01:19:05;12.40;42.80
59973;DHT22;55298;-36.624;-64.282;2022-09-02T01:21:47;12.30;42.90
59973;DHT22;55298;-36.624;-64.282;2022-09-02T01:24:42;12.30;43.00
59973;DHT22;55298;-36.624;-64.282;2022-09-02T01:27:31;12.30;43.00
59973;DHT22;55298;-36.624;-64.282;2022-09-02T01:30:30;12.20;43.00
59973;DHT22;55298;-36.624;-64.282;2022-09-02T01:36:43;12.10;43.40
59973;DHT22;55298;-36.624;-64.282;2022-09-02T01:41:49;12.00;43.70
59973;DHT22;55298;-36.624;-64.282;2022-09-02T01:49:40;11.90;44.30
59973;DHT22;55298;-36.624;-64.282;2022-09-02T01:52:10;11.90;44.50
59973;DHT22;55298;-36.624;-64.282;2022-09-02T01:54:37;11.80;44.00
59973;DHT22;55298;-36.624;-64.282;2022-09-02T01:57:07;11.80;44.50
59973;DHT22;55298;-36.624;-64.282;2022-09-02T01:59:35;11.80;44.60
59973;DHT22;55298;-36.624;-64.282;2022-09-02T02:02:05;11.70;44.60
59973;DHT22;55298;-36.624;-64.282;2022-09-02T02:04:34;11.70;44.70
59973;DHT22;55298;-36.624;-64.282;2022-09-02T02:07:05;11.70;44.80
59973;DHT22;55298;-36.624;-64.282;2022-09-02T02:09:34;11.60;44.80
59973;DHT22;55298;-36.624;-64.282;2022-09-02T02:12:04;11.60;45.10
59973;DHT22;55298;-36.624;-64.282;2022-09-02T02:14:35;11.50;44.80
59973;DHT22;55298;-36.624;-64.282;2022-09-02T02:17:04;11.30;45.20
59973;DHT22;55298;-36.624;-64.282;2022-09-02T02:19:32;11.30;44.90
59973;DHT22;55298;-36.624;-64.282;2022-09-02T02:22:04;11.30;45.40
59973;DHT22;55298;-36.624;-64.282;2022-09-02T02:24:35;11.20;45.10
59973;DHT22;55298;-36.624;-64.282;2022-09-02T02:27:08;11.20;45.20
59973;DHT22;55298;-36.624;-64.282;2022-09-02T02:29:39;10.70;45.40
59973;DHT22;55298;-36.624;-64.282;2022-09-02T02:32:07;11.20;45.80
59973;DHT22;55298;-36.624;-64.282;2022-09-02T02:34:35;11.20;45.80
59973;DHT22;55298;-36.624;-64.282;2022-09-02T02:37:09;11.10;45.90
59973;DHT22;55298;-36.624;-64.282;2022-09-02T02:40:03;11.10;45.60
59973;DHT22;55298;-36.624;-64.282;2022-09-02T02:42:32;11.20;46.10
59973;DHT22;55298;-36.624;-64.282;2022-09-02T02:45:00;11.00;46.00
59973;DHT22;55298;-36.624;-64.282;2022-09-02T02:47:30;10.90;46.10
59973;DHT22;55298;-36.624;-64.282;2022-09-02T02:49:59;10.80;46.20
59973;DHT22;55298;-36.624;-64.282;2022-09-02T02:52:26;10.70;46.30
59973;DHT22;55298;-36.624;-64.282;2022-09-02T02:54:54;10.70;46.50
59973;DHT22;55298;-36.624;-64.282;2022-09-02T02:57:23;10.70;46.50
59973;DHT22;55298;-36.624;-64.282;2022-09-02T02:59:51;10.70;46.70
59973;DHT22;55298;-36.624;-64.282;2022-09-02T03:02:20;10.70;46.60
59973;DHT22;55298;-36.624;-64.282;2022-09-02T03:04:48;10.70;46.60
59973;DHT22;55298;-36.624;-64.282;2022-09-02T03:07:23;10.70;46.60
59973;DHT22;55298;-36.624;-64.282;2022-09-02T03:09:51;10.70;46.50
59973;DHT22;55298;-36.624;-64.282;2022-09-02T03:12:19;10.70;46.60
59973;DHT22;55298;-36.624;-64.282;2022-09-02T03:14:48;10.70;46.30
59973;DHT22;55298;-36.624;-64.282;2022-09-02T03:17:16;10.60;46.80
59973;DHT22;55298;-36.624;-64.282;2022-09-02T03:19:48;10.60;46.90
59973;DHT22;55298;-36.624;-64.282;2022-09-02T03:22:20;10.60;47.10
59973;DHT22;55298;-36.624;-64.282;2022-09-02T03:24:49;10.50;47.20
59973;DHT22;55298;-36.624;-64.282;2022-09-02T03:27:17;10.50;47.40
59973;DHT22;55298;-36.624;-64.282;2022-09-02T03:29:46;10.50;47.50
59973;DHT22;55298;-36.624;-64.282;2022-09-02T03:32:13;10.40;47.70
59973;DHT22;55298;-36.624;-64.282;2022-09-02T03:34:41;10.30;47.90
59973;DHT22;55298;-36.624;-64.282;2022-09-02T03:37:09;10.30;47.90
59973;DHT22;55298;-36.624;-64.282;2022-09-02T03:39:37;10.20;48.10
59973;DHT22;55298;-36.624;-64.282;2022-09-02T03:42:07;10.20;48.20
59973;DHT22;55298;-36.624;-64.282;2022-09-02T03:44:36;10.10;48.40
59973;DHT22;55298;-36.624;-64.282;2022-09-02T03:47:03;10.10;48.30
59973;DHT22;55298;-36.624;-64.282;2022-09-02T03:49:33;10.10;48.30
59973;DHT22;55298;-36.624;-64.282;2022-09-02T03:52:02;10.10;48.50
59973;DHT22;55298;-36.624;-64.282;2022-09-02T03:54:29;10.10;48.40
59973;DHT22;55298;-36.624;-64.282;2022-09-02T03:56:58;10.00;48.50
59973;DHT22;55298;-36.624;-64.282;2022-09-02T03:59:26;10.00;48.60
59973;DHT22;55298;-36.624;-64.282;2022-09-02T04:01:55;9.90;48.60
59973;DHT22;55298;-36.624;-64.282;2022-09-02T04:04:23;9.90;48.60
59973;DHT22;55298;-36.624;-64.282;2022-09-02T04:06:51;9.90;48.50
59973;DHT22;55298;-36.624;-64.282;2022-09-02T04:09:20;9.90;48.60
59973;DHT22;55298;-36.624;-64.282;2022-09-02T04:11:47;9.90;48.60
59973;DHT22;55298;-36.624;-64.282;2022-09-02T04:14:17;9.80;48.70
59973;DHT22;55298;-36.624;-64.282;2022-09-02T04:16:45;9.80;48.90
59973;DHT22;55298;-36.624;-64.282;2022-09-02T04:19:13;9.70;49.10
59973;DHT22;55298;-36.624;-64.282;2022-09-02T04:21:41;9.70;49.30
59973;DHT22;55298;-36.624;-64.282;2022-09-02T04:24:10;9.60;49.50
59973;DHT22;55298;-36.624;-64.282;2022-09-02T04:26:38;9.60;49.80
59973;DHT22;55298;-36.624;-64.282;2022-09-02T04:29:07;9.50;49.80
59973;DHT22;55298;-36.624;-64.282;2022-09-02T04:31:35;9.50;50.20
59973;DHT22;55298;-36.624;-64.282;2022-09-02T04:34:13;9.40;50.50
59973;DHT22;55298;-36.624;-64.282;2022-09-02T04:36:42;9.40;50.80
59973;DHT22;55298;-36.624;-64.282;2022-09-02T04:39:10;9.40;50.80
59973;DHT22;55298;-36.624;-64.282;2022-09-02T04:41:39;9.30;50.90
59973;DHT22;55298;-36.624;-64.282;2022-09-02T04:44:08;9.40;51.10
59973;DHT22;55298;-36.624;-64.282;2022-09-02T04:46:37;9.30;51.30
59973;DHT22;55298;-36.624;-64.282;2022-09-02T04:49:06;9.30;51.40
59973;DHT22;55298;-36.624;-64.282;2022-09-02T04:51:34;9.40;51.40
59973;DHT22;55298;-36.624;-64.282;2022-09-02T04:54:02;9.30;52.00
59973;DHT22;55298;-36.624;-64.282;2022-09-02T04:56:30;9.20;51.60
59973;DHT22;55298;-36.624;-64.282;2022-09-02T04:58:59;9.20;51.80
59973;DHT22;55298;-36.624;-64.282;2022-09-02T05:01:30;9.20;52.10
59973;DHT22;55298;-36.624;-64.282;2022-09-02T05:04:00;9.10;52.30
59973;DHT22;55298;-36.624;-64.282;2022-09-02T05:06:29;9.10;52.50
59973;DHT22;55298;-36.624;-64.282;2022-09-02T05:08:58;9.00;52.50
59973;DHT22;55298;-36.624;-64.282;2022-09-02T05:11:29;9.10;52.40
59973;DHT22;55298;-36.624;-64.282;2022-09-02T05:14:01;9.00;52.60
59973;DHT22;55298;-36.624;-64.282;2022-09-02T05:16:34;8.90;52.90
59973;DHT22;55298;-36.624;-64.282;2022-09-02T05:19:06;8.90;52.90
59973;DHT22;55298;-36.624;-64.282;2022-09-02T05:21:43;8.90;52.80
59973;DHT22;55298;-36.624;-64.282;2022-09-02T05:24:12;8.90;53.00
59973;DHT22;55298;-36.624;-64.282;2022-09-02T05:26:40;8.90;53.20
59973;DHT22;55298;-36.624;-64.282;2022-09-02T05:29:11;8.80;53.20
59973;DHT22;55298;-36.624;-64.282;2022-09-02T05:31:41;8.80;53.10
59973;DHT22;55298;-36.624;-64.282;2022-09-02T05:34:09;8.90;53.30
59973;DHT22;55298;-36.624;-64.282;2022-09-02T05:36:40;8.90;53.40
59973;DHT22;55298;-36.624;-64.282;2022-09-02T05:39:09;8.90;53.40
59973;DHT22;55298;-36.624;-64.282;2022-09-02T05:41:38;8.90;53.50
59973;DHT22;55298;-36.624;-64.282;2022-09-02T05:44:08;8.90;53.70
59973;DHT22;55298;-36.624;-64.282;2022-09-02T05:46:37;8.80;53.70
59973;DHT22;55298;-36.624;-64.282;2022-09-02T05:49:06;8.70;54.10
59973;DHT22;55298;-36.624;-64.282;2022-09-02T05:51:42;8.70;54.10
59973;DHT22;55298;-36.624;-64.282;2022-09-02T05:54:16;8.60;53.90
59973;DHT22;55298;-36.624;-64.282;2022-09-02T05:56:46;8.70;53.80
59973;DHT22;55298;-36.624;-64.282;2022-09-02T05:59:16;8.60;54.10
59973;DHT22;55298;-36.624;-64.282;2022-09-02T06:01:46;8.60;54.10
59973;DHT22;55298;-36.624;-64.282;2022-09-02T06:04:15;8.50;54.40
59973;DHT22;55298;-36.624;-64.282;2022-09-02T06:06:44;8.40;54.00
59973;DHT22;55298;-36.624;-64.282;2022-09-02T06:09:19;8.50;54.40
59973;DHT22;55298;-36.624;-64.282;2022-09-02T06:11:48;8.50;54.30
59973;DHT22;55298;-36.624;-64.282;2022-09-02T06:14:20;8.50;54.70
59973;DHT22;55298;-36.624;-64.282;2022-09-02T06:16:49;8.50;54.30
59973;DHT22;55298;-36.624;-64.282;2022-09-02T06:19:21;8.50;54.10
59973;DHT22;55298;-36.624;-64.282;2022-09-02T06:21:51;8.30;54.20
59973;DHT22;55298;-36.624;-64.282;2022-09-02T06:24:21;8.20;54.70
59973;DHT22;55298;-36.624;-64.282;2022-09-02T06:26:49;8.20;54.90
59973;DHT22;55298;-36.624;-64.282;2022-09-02T06:29:19;8.20;54.90
59973;DHT22;55298;-36.624;-64.282;2022-09-02T06:31:49;8.10;55.00
59973;DHT22;55298;-36.624;-64.282;2022-09-02T06:34:19;8.00;55.50
59973;DHT22;55298;-36.624;-64.282;2022-09-02T06:36:50;7.90;55.90
59973;DHT22;55298;-36.624;-64.282;2022-09-02T06:39:20;7.90;55.70
59973;DHT22;55298;-36.624;-64.282;2022-09-02T06:41:48;7.90;55.50
59973;DHT22;55298;-36.624;-64.282;2022-09-02T06:44:18;7.80;56.10
59973;DHT22;55298;-36.624;-64.282;2022-09-02T06:46:55;7.70;56.00
59973;DHT22;55298;-36.624;-64.282;2022-09-02T06:49:26;7.80;57.30
59973;DHT22;55298;-36.624;-64.282;2022-09-02T06:51:55;7.70;58.00
59973;DHT22;55298;-36.624;-64.282;2022-09-02T06:54:26;7.80;58.30
59973;DHT22;55298;-36.624;-64.282;2022-09-02T06:56:56;7.80;59.10
59973;DHT22;55298;-36.624;-64.282;2022-09-02T06:59:24;7.70;60.00
59973;DHT22;55298;-36.624;-64.282;2022-09-02T07:01:52;7.70;61.10
59973;DHT22;55298;-36.624;-64.282;2022-09-02T07:04:21;7.50;63.10
59973;DHT22;55298;-36.624;-64.282;2022-09-02T07:06:59;7.60;63.10
59973;DHT22;55298;-36.624;-64.282;2022-09-02T07:09:30;7.60;63.10
59973;DHT22;55298;-36.624;-64.282;2022-09-02T07:12:00;7.70;62.30
59973;DHT22;55298;-36.624;-64.282;2022-09-02T07:14:29;7.50;62.50
59973;DHT22;55298;-36.624;-64.282;2022-09-02T07:16:57;7.50;62.60
59973;DHT22;55298;-36.624;-64.282;2022-09-02T07:19:26;7.60;62.40
59973;DHT22;55298;-36.624;-64.282;2022-09-02T07:21:54;7.70;62.50
59973;DHT22;55298;-36.624;-64.282;2022-09-02T07:24:22;7.50;63.50
59973;DHT22;55298;-36.624;-64.282;2022-09-02T07:26:51;7.50;63.60
59973;DHT22;55298;-36.624;-64.282;2022-09-02T07:29:20;7.50;63.20
59973;DHT22;55298;-36.624;-64.282;2022-09-02T07:31:48;7.60;61.50
59973;DHT22;55298;-36.624;-64.282;2022-09-02T07:34:18;7.40;61.50
59973;DHT22;55298;-36.624;-64.282;2022-09-02T07:36:45;7.60;59.90
59973;DHT22;55298;-36.624;-64.282;2022-09-02T07:39:16;7.50;59.60
59973;DHT22;55298;-36.624;-64.282;2022-09-02T07:41:47;7.50;59.30
59973;DHT22;55298;-36.624;-64.282;2022-09-02T07:44:19;7.40;60.40
59973;DHT22;55298;-36.624;-64.282;2022-09-02T07:46:47;7.30;59.60
59973;DHT22;55298;-36.624;-64.282;2022-09-02T07:49:18;7.20;59.00
59973;DHT22;55298;-36.624;-64.282;2022-09-02T07:51:47;7.20;59.40
59973;DHT22;55298;-36.624;-64.282;2022-09-02T07:54:20;7.30;59.10
59973;DHT22;55298;-36.624;-64.282;2022-09-02T07:56:48;7.30;59.10
59973;DHT22;55298;-36.624;-64.282;2022-09-02T07:59:20;7.10;59.70
59973;DHT22;55298;-36.624;-64.282;2022-09-02T08:01:51;6.90;60.00
59973;DHT22;55298;-36.624;-64.282;2022-09-02T08:04:21;7.00;60.40
59973;DHT22;55298;-36.624;-64.282;2022-09-02T08:06:53;6.80;61.50
59973;DHT22;55298;-36.624;-64.282;2022-09-02T08:09:22;6.90;62.70
59973;DHT22;55298;-36.624;-64.282;2022-09-02T08:11:52;6.80;63.70
59973;DHT22;55298;-36.624;-64.282;2022-09-02T08:14:23;6.80;64.00
59973;DHT22;55298;-36.624;-64.282;2022-09-02T08:16:54;6.80;63.70
59973;DHT22;55298;-36.624;-64.282;2022-09-02T08:19:24;6.70;65.00
59973;DHT22;55298;-36.624;-64.282;2022-09-02T08:21:52;6.70;65.80
59973;DHT22;55298;-36.624;-64.282;2022-09-02T08:24:21;6.70;67.30
59973;DHT22;55298;-36.624;-64.282;2022-09-02T08:26:48;6.70;66.80
59973;DHT22;55298;-36.624;-64.282;2022-09-02T08:29:17;6.70;67.20
59973;DHT22;55298;-36.624;-64.282;2022-09-02T08:31:44;6.60;67.60
59973;DHT22;55298;-36.624;-64.282;2022-09-02T08:34:13;6.40;68.60
59973;DHT22;55298;-36.624;-64.282;2022-09-02T08:36:40;6.40;69.30
59973;DHT22;55298;-36.624;-64.282;2022-09-02T08:39:09;6.30;69.70
59973;DHT22;55298;-36.624;-64.282;2022-09-02T08:44:37;6.30;69.30
59973;DHT22;55298;-36.624;-64.282;2022-09-02T08:47:11;6.30;69.40
59973;DHT22;55298;-36.624;-64.282;2022-09-02T08:49:45;6.30;69.00
59973;DHT22;55298;-36.624;-64.282;2022-09-02T08:52:21;6.20;69.60
59973;DHT22;55298;-36.624;-64.282;2022-09-02T08:54:55;6.20;70.20
59973;DHT22;55298;-36.624;-64.282;2022-09-02T08:57:23;6.10;70.80
59973;DHT22;55298;-36.624;-64.282;2022-09-02T08:59:56;6.20;70.40
59973;DHT22;55298;-36.624;-64.282;2022-09-02T09:02:49;6.20;67.40
59973;DHT22;55298;-36.624;-64.282;2022-09-02T09:05:36;6.20;67.80
59973;DHT22;55298;-36.624;-64.282;2022-09-02T09:08:27;6.20;67.10
59973;DHT22;55298;-36.624;-64.282;2022-09-02T09:11:03;6.10;69.40
59973;DHT22;55298;-36.624;-64.282;2022-09-02T09:14:06;6.10;70.40
59973;DHT22;55298;-36.624;-64.282;2022-09-02T09:19:46;6.00;71.50
59973;DHT22;55298;-36.624;-64.282;2022-09-02T09:22:18;6.10;71.40
59973;DHT22;55298;-36.624;-64.282;2022-09-02T09:24:48;6.10;72.00
59973;DHT22;55298;-36.624;-64.282;2022-09-02T09:27:20;6.00;70.40
59973;DHT22;55298;-36.624;-64.282;2022-09-02T09:29:50;6.00;71.00
59973;DHT22;55298;-36.624;-64.282;2022-09-02T09:32:29;5.90;72.00
59973;DHT22;55298;-36.624;-64.282;2022-09-02T09:35:05;5.80;72.20
59973;DHT22;55298;-36.624;-64.282;2022-09-02T09:37:41;5.70;72.00
59973;DHT22;55298;-36.624;-64.282;2022-09-02T09:40:25;5.80;71.60
59973;DHT22;55298;-36.624;-64.282;2022-09-02T09:45:45;5.60;74.50
59973;DHT22;55298;-36.624;-64.282;2022-09-02T09:48:28;5.50;75.90
59973;DHT22;55298;-36.624;-64.282;2022-09-02T09:51:12;5.40;77.00
59973;DHT22;55298;-36.624;-64.282;2022-09-02T09:53:40;5.30;77.20
59973;DHT22;55298;-36.624;-64.282;2022-09-02T09:56:29;5.40;76.60
59973;DHT22;55298;-36.624;-64.282;2022-09-02T09:58:57;5.40;76.90
59973;DHT22;55298;-36.624;-64.282;2022-09-02T10:01:32;5.30;77.20
59973;DHT22;55298;-36.624;-64.282;2022-09-02T10:04:29;5.40;76.80
59973;DHT22;55298;-36.624;-64.282;2022-09-02T10:06:59;5.40;77.10
59973;DHT22;55298;-36.624;-64.282;2022-09-02T10:09:34;5.30;75.70
59973;DHT22;55298;-36.624;-64.282;2022-09-02T10:12:05;5.40;74.30
59973;DHT22;55298;-36.624;-64.282;2022-09-02T10:14:44;5.50;73.60
59973;DHT22;55298;-36.624;-64.282;2022-09-02T10:17:36;5.50;73.70
59973;DHT22;55298;-36.624;-64.282;2022-09-02T10:20:16;5.60;74.80
59973;DHT22;55298;-36.624;-64.282;2022-09-02T10:23:00;5.40;76.30
59973;DHT22;55298;-36.624;-64.282;2022-09-02T10:31:43;5.40;78.40
59973;DHT22;55298;-36.624;-64.282;2022-09-02T10:34:40;5.20;78.10
59973;DHT22;55298;-36.624;-64.282;2022-09-02T10:37:20;5.30;77.90
59973;DHT22;55298;-36.624;-64.282;2022-09-02T10:40:06;5.20;77.20
59973;DHT22;55298;-36.624;-64.282;2022-09-02T10:45:49;5.30;75.60
59973;DHT22;55298;-36.624;-64.282;2022-09-02T10:58:06;5.20;77.70
59973;DHT22;55298;-36.624;-64.282;2022-09-02T11:11:24;5.10;75.10
59973;DHT22;55298;-36.624;-64.282;2022-09-02T11:14:05;5.20;74.80
59973;DHT22;55298;-36.624;-64.282;2022-09-02T11:16:46;5.30;71.60
59973;DHT22;55298;-36.624;-64.282;2022-09-02T11:19:26;5.70;68.70
59973;DHT22;55298;-36.624;-64.282;2022-09-02T11:22:18;5.90;68.80
59973;DHT22;55298;-36.624;-64.282;2022-09-02T11:25:05;6.80;61.10
59973;DHT22;55298;-36.624;-64.282;2022-09-02T11:30:46;7.10;59.00
59973;DHT22;55298;-36.624;-64.282;2022-09-02T11:33:29;7.50;58.50
59973;DHT22;55298;-36.624;-64.282;2022-09-02T11:35:58;7.70;57.30
59973;DHT22;55298;-36.624;-64.282;2022-09-02T11:41:54;7.90;56.80
59973;DHT22;55298;-36.624;-64.282;2022-09-02T11:47:30;8.30;54.70
59973;DHT22;55298;-36.624;-64.282;2022-09-02T11:50:25;8.40;54.60
59973;DHT22;55298;-36.624;-64.282;2022-09-02T11:55:53;8.90;53.30
59973;DHT22;55298;-36.624;-64.282;2022-09-02T11:58:35;9.00;52.90
59973;DHT22;55298;-36.624;-64.282;2022-09-02T12:01:28;9.30;52.50
59973;DHT22;55298;-36.624;-64.282;2022-09-02T12:04:05;9.30;51.80
59973;DHT22;55298;-36.624;-64.282;2022-09-02T12:09:48;9.70;51.50
59973;DHT22;55298;-36.624;-64.282;2022-09-02T12:15:18;10.10;50.50
59973;DHT22;55298;-36.624;-64.282;2022-09-02T12:18:25;10.40;49.50
59973;DHT22;55298;-36.624;-64.282;2022-09-02T12:21:06;10.60;49.30
59973;DHT22;55298;-36.624;-64.282;2022-09-02T12:27:05;11.10;48.80
59973;DHT22;55298;-36.624;-64.282;2022-09-02T12:29:35;11.40;48.70
59973;DHT22;55298;-36.624;-64.282;2022-09-02T12:32:05;11.50;48.90
59973;DHT22;55298;-36.624;-64.282;2022-09-02T12:40:18;12.30;47.80
59973;DHT22;55298;-36.624;-64.282;2022-09-02T12:42:46;12.60;47.40
59973;DHT22;55298;-36.624;-64.282;2022-09-02T12:45:27;12.90;47.00
59973;DHT22;55298;-36.624;-64.282;2022-09-02T12:48:10;13.10;46.60
59973;DHT22;55298;-36.624;-64.282;2022-09-02T12:50:53;13.00;46.70
59973;DHT22;55298;-36.624;-64.282;2022-09-02T12:53:38;13.10;46.10
59973;DHT22;55298;-36.624;-64.282;2022-09-02T12:56:21;13.40;45.00
59973;DHT22;55298;-36.624;-64.282;2022-09-02T12:58:53;13.80;44.30
59973;DHT22;55298;-36.624;-64.282;2022-09-02T13:10:10;14.60;40.90
59973;DHT22;55298;-36.624;-64.282;2022-09-02T13:13:11;14.80;40.40
59973;DHT22;55298;-36.624;-64.282;2022-09-02T13:15:59;14.80;40.30
59973;DHT22;55298;-36.624;-64.282;2022-09-02T13:21:53;15.40;38.80
59973;DHT22;55298;-36.624;-64.282;2022-09-02T13:24:50;15.40;37.20
59973;DHT22;55298;-36.624;-64.282;2022-09-02T13:30:17;16.00;35.50
59973;DHT22;55298;-36.624;-64.282;2022-09-02T13:32:59;16.20;35.10
59973;DHT22;55298;-36.624;-64.282;2022-09-02T13:35:32;16.50;34.20
59973;DHT22;55298;-36.624;-64.282;2022-09-02T13:38:07;16.50;34.10
59973;DHT22;55298;-36.624;-64.282;2022-09-02T13:40:37;16.20;33.80
59973;DHT22;55298;-36.624;-64.282;2022-09-02T13:43:21;16.00;33.70
59973;DHT22;55298;-36.624;-64.282;2022-09-02T13:45:55;16.00;33.90
59973;DHT22;55298;-36.624;-64.282;2022-09-02T13:48:27;16.60;33.30
59973;DHT22;55298;-36.624;-64.282;2022-09-02T13:51:08;16.90;32.00
59973;DHT22;55298;-36.624;-64.282;2022-09-02T13:53:39;17.10;31.10
59973;DHT22;55298;-36.624;-64.282;2022-09-02T13:56:10;17.00;31.00
59973;DHT22;55298;-36.624;-64.282;2022-09-02T13:58:48;17.00;30.80
59973;DHT22;55298;-36.624;-64.282;2022-09-02T14:01:30;17.00;31.00
59973;DHT22;55298;-36.624;-64.282;2022-09-02T14:04:13;16.70;31.00
59973;DHT22;55298;-36.624;-64.282;2022-09-02T14:06:47;17.00;30.20
59973;DHT22;55298;-36.624;-64.282;2022-09-02T14:09:24;17.40;29.50
59973;DHT22;55298;-36.624;-64.282;2022-09-02T14:12:01;17.40;29.30
59973;DHT22;55298;-36.624;-64.282;2022-09-02T14:14:34;17.60;28.70
59973;DHT22;55298;-36.624;-64.282;2022-09-02T14:17:16;17.80;28.50
59973;DHT22;55298;-36.624;-64.282;2022-09-02T14:19:47;18.00;28.20
59973;DHT22;55298;-36.624;-64.282;2022-09-02T14:22:23;18.00;27.30
59973;DHT22;55298;-36.624;-64.282;2022-09-02T14:24:53;18.10;27.10
59973;DHT22;55298;-36.624;-64.282;2022-09-02T14:27:23;17.90;27.30
59973;DHT22;55298;-36.624;-64.282;2022-09-02T14:29:56;18.10;27.40
59973;DHT22;55298;-36.624;-64.282;2022-09-02T14:32:26;18.20;26.90
59973;DHT22;55298;-36.624;-64.282;2022-09-02T14:35:11;18.30;26.60
59973;DHT22;55298;-36.624;-64.282;2022-09-02T14:37:49;18.30;26.80
59973;DHT22;55298;-36.624;-64.282;2022-09-02T14:40:31;18.50;26.60
59973;DHT22;55298;-36.624;-64.282;2022-09-02T14:42:59;18.60;26.60
59973;DHT22;55298;-36.624;-64.282;2022-09-02T14:45:36;18.70;26.20
59973;DHT22;55298;-36.624;-64.282;2022-09-02T14:48:24;18.80;26.50
59973;DHT22;55298;-36.624;-64.282;2022-09-02T14:53:21;18.80;25.70
59973;DHT22;55298;-36.624;-64.282;2022-09-02T14:55:53;18.80;25.60
59973;DHT22;55298;-36.624;-64.282;2022-09-02T14:58:26;18.90;25.60
59973;DHT22;55298;-36.624;-64.282;2022-09-02T15:00:57;18.80;25.40
59973;DHT22;55298;-36.624;-64.282;2022-09-02T15:03:29;18.80;26.00
59973;DHT22;55298;-36.624;-64.282;2022-09-02T15:05:59;18.20;26.00
59973;DHT22;55298;-36.624;-64.282;2022-09-02T15:08:26;18.40;26.40
59973;DHT22;55298;-36.624;-64.282;2022-09-02T15:10:58;18.10;26.00
59973;DHT22;55298;-36.624;-64.282;2022-09-02T15:13:31;17.70;26.40
59973;DHT22;55298;-36.624;-64.282;2022-09-02T15:16:01;17.70;26.80
59973;DHT22;55298;-36.624;-64.282;2022-09-02T15:18:31;17.70;27.10
59973;DHT22;55298;-36.624;-64.282;2022-09-02T15:20:59;17.50;26.80
59973;DHT22;55298;-36.624;-64.282;2022-09-02T15:23:30;17.30;26.70
59973;DHT22;55298;-36.624;-64.282;2022-09-02T15:25:58;17.40;26.80
59973;DHT22;55298;-36.624;-64.282;2022-09-02T15:28:28;17.20;26.90
59973;DHT22;55298;-36.624;-64.282;2022-09-02T15:30:59;17.30;27.10
59973;DHT22;55298;-36.624;-64.282;2022-09-02T15:33:30;17.10;27.20
59973;DHT22;55298;-36.624;-64.282;2022-09-02T15:36:08;17.40;27.00
59973;DHT22;55298;-36.624;-64.282;2022-09-02T15:38:40;17.60;26.70
59973;DHT22;55298;-36.624;-64.282;2022-09-02T15:41:19;18.00;26.60
59973;DHT22;55298;-36.624;-64.282;2022-09-02T15:43:54;18.00;26.20
59973;DHT22;55298;-36.624;-64.282;2022-09-02T15:46:25;18.50;26.00
59973;DHT22;55298;-36.624;-64.282;2022-09-02T15:48:54;18.40;25.80
59973;DHT22;55298;-36.624;-64.282;2022-09-02T15:51:23;18.10;26.10
59973;DHT22;55298;-36.624;-64.282;2022-09-02T15:54:00;17.90;26.50
59973;DHT22;55298;-36.624;-64.282;2022-09-02T15:56:29;17.60;26.80
59973;DHT22;55298;-36.624;-64.282;2022-09-02T15:59:01;17.50;27.00
59973;DHT22;55298;-36.624;-64.282;2022-09-02T16:01:32;17.60;27.00
59973;DHT22;55298;-36.624;-64.282;2022-09-02T16:04:02;17.60;27.30
59973;DHT22;55298;-36.624;-64.282;2022-09-02T16:06:31;17.30;27.10
59973;DHT22;55298;-36.624;-64.282;2022-09-02T16:09:00;17.30;27.30
59973;DHT22;55298;-36.624;-64.282;2022-09-02T16:11:37;17.80;27.20
59973;DHT22;55298;-36.624;-64.282;2022-09-02T16:14:06;18.20;26.80
59973;DHT22;55298;-36.624;-64.282;2022-09-02T16:16:34;18.10;26.40
59973;DHT22;55298;-36.624;-64.282;2022-09-02T16:19:25;18.00;26.00
59973;DHT22;55298;-36.624;-64.282;2022-09-02T16:21:56;17.90;26.60
59973;DHT22;55298;-36.624;-64.282;2022-09-02T16:24:25;18.00;26.50
59973;DHT22;55298;-36.624;-64.282;2022-09-02T16:26:54;18.10;26.00
59973;DHT22;55298;-36.624;-64.282;2022-09-02T16:29:22;18.40;26.10
59973;DHT22;55298;-36.624;-64.282;2022-09-02T16:31:52;17.80;26.30
59973;DHT22;55298;-36.624;-64.282;2022-09-02T16:34:22;17.60;26.40
59973;DHT22;55298;-36.624;-64.282;2022-09-02T16:36:50;17.80;26.60
59973;DHT22;55298;-36.624;-64.282;2022-09-02T16:39:19;17.70;26.40
59973;DHT22;55298;-36.624;-64.282;2022-09-02T16:41:51;17.80;26.60
59973;DHT22;55298;-36.624;-64.282;2022-09-02T16:44:31;18.30;26.30
59973;DHT22;55298;-36.624;-64.282;2022-09-02T16:47:23;18.60;26.00
59973;DHT22;55298;-36.624;-64.282;2022-09-02T16:52:20;18.20;26.10
59973;DHT22;55298;-36.624;-64.282;2022-09-02T16:54:48;18.50;25.80
59973;DHT22;55298;-36.624;-64.282;2022-09-02T16:57:17;18.10;25.80
59973;DHT22;55298;-36.624;-64.282;2022-09-02T16:59:48;18.50;25.70
59973;DHT22;55298;-36.624;-64.282;2022-09-02T17:02:18;18.60;24.90
59973;DHT22;55298;-36.624;-64.282;2022-09-02T17:04:48;18.80;25.20
59973;DHT22;55298;-36.624;-64.282;2022-09-02T17:20:26;19.00;23.30
59973;DHT22;55298;-36.624;-64.282;2022-09-02T17:25:37;18.70;24.90
59973;DHT22;55298;-36.624;-64.282;2022-09-02T17:28:10;18.80;25.20
59973;DHT22;55298;-36.624;-64.282;2022-09-02T17:30:38;19.30;24.40
59973;DHT22;55298;-36.624;-64.282;2022-09-02T17:33:08;19.40;23.50
59973;DHT22;55298;-36.624;-64.282;2022-09-02T17:35:37;19.00;23.50
59973;DHT22;55298;-36.624;-64.282;2022-09-02T17:38:08;19.00;23.90
59973;DHT22;55298;-36.624;-64.282;2022-09-02T17:41:28;19.20;23.80
59973;DHT22;55298;-36.624;-64.282;2022-09-02T17:49:50;19.60;23.80
59973;DHT22;55298;-36.624;-64.282;2022-09-02T17:52:20;19.30;23.60
59973;DHT22;55298;-36.624;-64.282;2022-09-02T17:54:53;19.20;23.90
59973;DHT22;55298;-36.624;-64.282;2022-09-02T18:00:20;18.70;24.20
59973;DHT22;55298;-36.624;-64.282;2022-09-02T18:11:10;19.50;24.20
59973;DHT22;55298;-36.624;-64.282;2022-09-02T18:17:13;19.50;23.50
59973;DHT22;55298;-36.624;-64.282;2022-09-02T18:23:02;19.20;23.80
59973;DHT22;55298;-36.624;-64.282;2022-09-02T18:25:49;18.90;24.40
59973;DHT22;55298;-36.624;-64.282;2022-09-02T18:28:36;19.10;24.20
59973;DHT22;55298;-36.624;-64.282;2022-09-02T18:34:32;19.80;23.40
59973;DHT22;55298;-36.624;-64.282;2022-09-02T18:37:30;19.90;23.10
59973;DHT22;55298;-36.624;-64.282;2022-09-02T18:48:32;20.30;22.80
59973;DHT22;55298;-36.624;-64.282;2022-09-02T18:51:23;20.00;22.60